Time;durP1;ratioP1;P1;durP2;ratioP2;P2;SDS_P1;SDS_P2;PMS_P1;PMS_P2;Temp;Humidity;BMP_temperature;BMP_pressure;BME280_temperature;BME280_humidity;BME280_pressure;Samples;Min_cycle;Max_cycle;Signal;HPM_P1;HPM_P2
2023/08/07 00:01:20;;;;;;;22.53;4.70;;;25.20;57.30;;;;;;5037178;28;20283;-68
2023/08/07 00:03:47;;;;;;;24.07;5.17;;;25.20;57.30;;;;;;5045638;28;20291;-72
2023/08/07 00:06:14;;;;;;;69.37;9.23;;;25.20;57.30;;;;;;5024939;28;20197;-70
2023/08/07 00:08:43;;;;;;;23.73;5.20;;;25.20;57.30;;;;;;5026044;28;20598;-70
2023/08/07 00:11:10;;;;;;;19.60;4.63;;;25.10;57.20;;;;;;5044413;28;20255;-68
2023/08/07 00:13:38;;;;;;;25.03;5.10;;;25.10;57.20;;;;;;5036237;28;20213;-69
2023/08/07 00:16:05;;;;;;;28.23;5.77;;;25.10;57.20;;;;;;5025920;28;20720;-69
2023/08/07 00:18:32;;;;;;;22.43;5.07;;;25.10;57.20;;;;;;5025229;28;20217;-70
2023/08/07 00:20:59;;;;;;;29.43;5.57;;;25.10;57.20;;;;;;5026068;28;20204;-69
2023/08/07 00:23:26;;;;;;;25.97;5.27;;;25.10;57.20;;;;;;5025152;28;20268;-68
2023/08/07 00:25:54;;;;;;;29.80;5.90;;;25.20;57.30;;;;;;5026217;28;20284;-69
2023/08/07 00:28:21;;;;;;;25.47;5.60;;;25.10;57.80;;;;;;5024831;28;20954;-70
2023/08/07 00:30:49;;;;;;;24.53;5.47;;;25.10;57.20;;;;;;5030885;28;20315;-69
2023/08/07 00:33:16;;;;;;;27.60;5.80;;;25.10;57.20;;;;;;5046057;28;20196;-69
2023/08/07 00:35:43;;;;;;;23.17;5.17;;;25.10;57.20;;;;;;5046240;28;20208;-70
2023/08/07 00:38:09;;;;;;;28.30;5.53;;;25.10;57.20;;;;;;5032788;28;20280;-68
2023/08/07 00:40:40;;;;;;;28.97;5.57;;;25.10;57.20;;;;;;5024698;28;20249;-70
2023/08/07 00:43:08;;;;;;;27.07;5.43;;;25.10;57.20;;;;;;5039492;28;20232;-68
2023/08/07 00:45:43;;;;;;;27.40;5.33;;;25.10;57.20;;;;;;5046056;28;20295;-69
2023/08/07 00:48:12;;;;;;;25.03;5.13;;;25.10;57.20;;;;;;5024214;28;20695;-69
2023/08/07 00:50:40;;;;;;;28.47;5.47;;;25.10;57.20;;;;;;5025772;28;20646;-69
2023/08/07 00:53:07;;;;;;;32.97;5.83;;;25.10;57.20;;;;;;5025853;28;20281;-69
2023/08/07 00:55:34;;;;;;;24.20;5.23;;;25.10;57.20;;;;;;5025994;28;20288;-69
2023/08/07 00:58:01;;;;;;;25.03;5.33;;;25.10;57.20;;;;;;5024111;28;20253;-69
2023/08/07 01:00:30;;;;;;;42.70;7.13;;;25.00;57.80;;;;;;5025945;28;20315;-69
2023/08/07 01:02:58;;;;;;;27.33;5.30;;;25.00;57.20;;;;;;5044083;28;20223;-69
2023/08/07 01:05:26;;;;;;;22.37;4.90;;;25.00;57.10;;;;;;5045710;28;20210;-70
2023/08/07 01:07:55;;;;;;;29.57;5.40;;;25.00;57.10;;;;;;5039644;28;20193;-69
2023/08/07 01:10:33;;;;;;;27.00;5.33;;;25.00;57.10;;;;;;5031890;28;20227;-69
2023/08/07 01:13:07;;;;;;;29.27;5.40;;;25.00;57.10;;;;;;5025087;28;20212;-69
2023/08/07 01:15:38;;;;;;;22.40;4.93;;;25.00;57.10;;;;;;5032077;28;20288;-69
2023/08/07 01:18:08;;;;;;;18.57;4.80;;;25.00;57.10;;;;;;5038441;28;20292;-68
2023/08/07 01:20:35;;;;;;;21.23;4.90;;;25.00;57.10;;;;;;5025241;28;20211;-70
2023/08/07 01:23:03;;;;;;;24.67;5.33;;;25.00;57.10;;;;;;5025213;28;20225;-69
2023/08/07 01:25:31;;;;;;;34.87;5.83;;;25.00;57.10;;;;;;5022696;28;20261;-69
2023/08/07 01:28:05;;;;;;;37.63;6.47;;;25.00;57.10;;;;;;5023588;28;20203;-68
2023/08/07 01:30:37;;;;;;;29.37;5.77;;;25.00;57.20;;;;;;5026528;28;20347;-68
2023/08/07 01:33:11;;;;;;;20.77;4.97;;;25.00;57.10;;;;;;5045076;28;20287;-69
2023/08/07 01:35:43;;;;;;;23.83;5.10;;;25.00;57.10;;;;;;5045315;28;20211;-69
2023/08/07 01:38:13;;;;;;;39.83;6.50;;;24.90;57.10;;;;;;5042996;28;20205;-69
2023/08/07 01:40:41;;;;;;;38.63;6.27;;;25.00;57.10;;;;;;5045472;28;20214;-69
2023/08/07 01:43:08;;;;;;;23.27;4.73;;;24.90;57.10;;;;;;5028864;28;20232;-69
2023/08/07 01:45:36;;;;;;;24.70;5.07;;;24.90;57.10;;;;;;5027713;28;20710;-70
2023/08/07 01:48:03;;;;;;;25.43;5.43;;;24.90;57.10;;;;;;5028362;27;20640;-69
2023/08/07 01:50:30;;;;;;;27.00;5.10;;;24.90;57.10;;;;;;5027707;28;20193;-69
2023/08/07 01:52:57;;;;;;;30.83;5.87;;;24.90;57.10;;;;;;5027866;28;20207;-69
2023/08/07 01:55:26;;;;;;;26.90;5.50;;;24.90;57.20;;;;;;5028556;28;20250;-69
2023/08/07 01:57:53;;;;;;;21.97;5.07;;;24.90;57.10;;;;;;5027651;28;20284;-69
2023/08/07 02:00:20;;;;;;;44.43;7.07;;;24.90;57.10;;;;;;5027973;28;20184;-70
2023/08/07 02:02:47;;;;;;;29.90;5.43;;;24.90;57.10;;;;;;5030930;28;20232;-68
2023/08/07 02:05:14;;;;;;;19.60;4.73;;;24.90;57.10;;;;;;5028374;28;20295;-68
2023/08/07 02:07:41;;;;;;;27.13;5.63;;;24.90;57.10;;;;;;5028699;28;20300;-70
2023/08/07 02:10:09;;;;;;;21.43;4.77;;;24.90;57.10;;;;;;5028395;28;20241;-69
2023/08/07 02:12:38;;;;;;;22.73;4.97;;;24.80;57.10;;;;;;5027306;28;20284;-69
2023/08/07 02:15:05;;;;;;;37.17;6.33;;;24.90;57.10;;;;;;5027241;28;20287;-68
2023/08/07 02:17:33;;;;;;;43.53;6.67;;;24.80;57.10;;;;;;5027605;28;20208;-68
2023/08/07 02:20:00;;;;;;;23.33;5.00;;;24.90;57.20;;;;;;5030633;28;20193;-69
2023/08/07 02:22:27;;;;;;;24.97;5.53;;;24.80;57.10;;;;;;5039285;28;20340;-68
2023/08/07 02:24:54;;;;;;;22.97;5.13;;;24.80;57.10;;;;;;5028149;28;20286;-68
2023/08/07 02:27:21;;;;;;;23.83;5.10;;;24.90;57.10;;;;;;5028268;28;20200;-68
2023/08/07 02:29:50;;;;;;;21.30;5.07;;;24.80;57.10;;;;;;5028226;28;20307;-69
2023/08/07 02:32:17;;;;;;;52.40;7.73;;;24.90;57.20;;;;;;5025257;28;20645;-68
2023/08/07 02:34:46;;;;;;;30.83;5.87;;;24.80;57.10;;;;;;5047829;28;20240;-69
2023/08/07 02:37:13;;;;;;;31.60;5.83;;;24.80;57.10;;;;;;5047694;28;20253;-69
2023/08/07 02:39:40;;;;;;;25.37;5.70;;;24.80;57.10;;;;;;5047897;28;20295;-69
2023/08/07 02:42:08;;;;;;;27.90;5.87;;;24.80;57.20;;;;;;5047280;28;20330;-68
2023/08/07 02:44:34;;;;;;;28.77;5.50;;;24.80;57.10;;;;;;5027456;28;20291;-69
2023/08/07 02:47:03;;;;;;;34.73;6.00;;;24.80;57.10;;;;;;5026200;28;20284;-69
2023/08/07 02:49:30;;;;;;;33.03;6.00;;;24.80;57.10;;;;;;5024829;28;20289;-68
2023/08/07 02:51:57;;;;;;;38.50;6.50;;;24.80;57.10;;;;;;5023357;28;20223;-69
2023/08/07 02:54:24;;;;;;;28.53;5.53;;;24.80;57.10;;;;;;5027133;28;20295;-69
2023/08/07 02:56:51;;;;;;;34.67;6.10;;;24.80;57.10;;;;;;5026976;28;20299;-69
2023/08/07 02:59:20;;;;;;;31.83;5.70;;;24.80;57.10;;;;;;5026240;28;20223;-69
2023/08/07 03:01:47;;;;;;;32.03;6.07;;;24.80;57.10;;;;;;5025686;28;20213;-69
2023/08/07 03:04:15;;;;;;;26.80;5.30;;;24.80;57.10;;;;;;5027356;28;20231;-71
2023/08/07 03:06:42;;;;;;;35.23;6.13;;;24.80;57.10;;;;;;5025894;28;20244;-69
2023/08/07 03:09:09;;;;;;;28.43;5.80;;;24.80;57.10;;;;;;5026908;28;20641;-69
2023/08/07 03:11:36;;;;;;;31.47;6.23;;;24.80;57.10;;;;;;5026858;28;20189;-73
2023/08/07 03:14:03;;;;;;;26.97;5.37;;;24.80;57.10;;;;;;5027094;28;20211;-70
2023/08/07 03:16:30;;;;;;;26.43;5.40;;;24.80;57.00;;;;;;5025704;28;20231;-70
2023/08/07 03:18:57;;;;;;;22.17;5.30;;;24.70;56.90;;;;;;5022743;28;20906;-69
2023/08/07 03:21:28;;;;;;;30.30;6.30;;;24.70;56.90;;;;;;5026936;28;20582;-69
2023/08/07 03:23:55;;;;;;;33.17;6.13;;;24.70;56.90;;;;;;5026600;28;20331;-69
2023/08/07 03:26:22;;;;;;;43.20;7.33;;;24.70;56.90;;;;;;5025356;28;20205;-70
2023/08/07 03:28:49;;;;;;;36.30;6.50;;;24.70;56.90;;;;;;5026679;28;20283;-71
2023/08/07 03:31:17;;;;;;;28.43;5.50;;;24.60;57.50;;;;;;5025638;28;20221;-72
2023/08/07 03:33:44;;;;;;;28.73;5.73;;;24.70;57.00;;;;;;5025623;28;20289;-70
2023/08/07 03:36:11;;;;;;;32.00;5.87;;;24.70;57.00;;;;;;5026617;28;20602;-69
2023/08/07 03:38:39;;;;;;;30.83;5.67;;;24.70;57.00;;;;;;5024506;28;20292;-69
2023/08/07 03:41:06;;;;;;;31.37;5.80;;;24.60;57.50;;;;;;5027018;28;20291;-69
2023/08/07 03:43:33;;;;;;;27.93;5.57;;;24.70;57.10;;;;;;5025290;28;20229;-68
2023/08/07 03:46:00;;;;;;;33.20;5.93;;;24.60;57.00;;;;;;5025580;28;20197;-69
2023/08/07 03:48:27;;;;;;;43.27;7.03;;;24.60;57.00;;;;;;5025099;28;20315;-69
2023/08/07 03:50:54;;;;;;;28.37;5.70;;;24.60;56.90;;;;;;5025362;28;20209;-69
2023/08/07 03:53:21;;;;;;;29.93;5.60;;;24.60;57.00;;;;;;5026026;28;20208;-69
2023/08/07 03:55:52;;;;;;;31.20;5.93;;;24.60;57.00;;;;;;5026757;28;20315;-70
2023/08/07 03:58:19;;;;;;;30.43;5.73;;;24.60;57.00;;;;;;5025256;28;20200;-70
2023/08/07 04:00:46;;;;;;;33.60;5.87;;;24.60;57.00;;;;;;5025262;28;20221;-68
2023/08/07 04:03:13;;;;;;;23.30;5.07;;;24.50;56.90;;;;;;5026238;28;20224;-69
2023/08/07 04:05:40;;;;;;;30.20;5.60;;;24.50;57.00;;;;;;5026384;28;20205;-70
2023/08/07 04:08:07;;;;;;;25.67;5.37;;;24.50;57.00;;;;;;5026143;28;20205;-69
2023/08/07 04:10:34;;;;;;;27.83;5.37;;;24.50;57.00;;;;;;5025001;28;20284;-69
2023/08/07 04:13:03;;;;;;;38.57;6.63;;;24.50;57.00;;;;;;5025818;28;20295;-69
2023/08/07 04:15:30;;;;;;;28.57;5.63;;;24.50;57.00;;;;;;5024820;28;20301;-69
2023/08/07 04:17:57;;;;;;;27.47;5.53;;;24.50;57.00;;;;;;5026157;28;20351;-70
2023/08/07 04:20:24;;;;;;;42.07;6.73;;;24.50;57.10;;;;;;5024178;28;20301;-69
2023/08/07 04:22:51;;;;;;;32.70;6.00;;;24.50;57.10;;;;;;5045702;27;20242;-69
2023/08/07 04:25:18;;;;;;;31.27;6.10;;;24.50;57.10;;;;;;5038407;28;21060;-69
2023/08/07 04:27:45;;;;;;;24.77;5.30;;;24.50;57.10;;;;;;5025551;28;20299;-71
2023/08/07 04:30:14;;;;;;;36.03;6.30;;;24.50;57.10;;;;;;5023935;28;20311;-69
2023/08/07 04:32:41;;;;;;;27.57;5.77;;;24.50;57.10;;;;;;5025904;28;20287;-69
2023/08/07 04:35:09;;;;;;;36.33;6.50;;;24.50;57.10;;;;;;5025590;28;20201;-69
2023/08/07 04:37:36;;;;;;;33.30;6.00;;;24.50;57.10;;;;;;5025888;28;20261;-69
2023/08/07 04:40:04;;;;;;;35.27;6.37;;;24.50;57.10;;;;;;5024841;28;20284;-69
2023/08/07 04:42:32;;;;;;;62.93;8.73;;;24.50;57.10;;;;;;5024578;28;20254;-69
2023/08/07 04:44:59;;;;;;;28.27;5.67;;;24.50;57.10;;;;;;5024626;28;20216;-70
2023/08/07 04:47:29;;;;;;;34.43;6.70;;;24.50;57.10;;;;;;5025561;28;20300;-68
2023/08/07 04:49:56;;;;;;;29.57;5.60;;;24.50;57.10;;;;;;5006119;28;20652;-68
2023/08/07 04:52:23;;;;;;;31.70;5.97;;;24.50;57.10;;;;;;5005615;28;20292;-68
2023/08/07 04:54:50;;;;;;;29.67;5.83;;;24.50;57.30;;;;;;5020362;28;20219;-69
2023/08/07 04:57:17;;;;;;;37.80;6.53;;;24.40;57.00;;;;;;5023921;28;20967;-68
2023/08/07 04:59:44;;;;;;;27.47;5.73;;;24.40;57.00;;;;;;5024647;28;20212;-68
2023/08/07 05:02:11;;;;;;;29.77;5.80;;;24.40;57.00;;;;;;5024259;28;20201;-68
2023/08/07 05:04:39;;;;;;;30.53;5.90;;;24.40;57.00;;;;;;5024450;28;20317;-69
2023/08/07 05:07:05;;;;;;;26.27;5.33;;;24.40;57.00;;;;;;5025683;28;20205;-68
2023/08/07 05:09:32;;;;;;;26.20;5.73;;;24.50;57.10;;;;;;5025167;28;20190;-69
2023/08/07 05:11:59;;;;;;;23.17;5.13;;;24.40;57.00;;;;;;5024190;28;20315;-69
2023/08/07 05:14:27;;;;;;;40.13;6.60;;;24.40;57.00;;;;;;5025868;28;20284;-70
2023/08/07 05:16:54;;;;;;;25.50;5.33;;;24.40;57.00;;;;;;5034862;28;20208;-68
2023/08/07 05:19:20;;;;;;;26.33;5.37;;;24.40;57.00;;;;;;5037344;28;20279;-70
2023/08/07 05:21:50;;;;;;;28.30;5.73;;;24.40;57.60;;;;;;5045419;28;20271;-68
2023/08/07 05:24:17;;;;;;;26.73;5.37;;;24.40;57.00;;;;;;5025179;27;20319;-68
2023/08/07 05:26:45;;;;;;;23.13;5.47;;;24.40;57.00;;;;;;5024910;28;20292;-71
2023/08/07 05:29:12;;;;;;;30.10;5.70;;;24.40;57.00;;;;;;5025343;28;20205;-68
2023/08/07 05:31:38;;;;;;;26.67;5.47;;;24.40;57.00;;;;;;5034614;28;20887;-69
2023/08/07 05:34:06;;;;;;;25.50;5.43;;;24.40;57.00;;;;;;5031689;28;20311;-70
2023/08/07 05:36:33;;;;;;;33.20;5.70;;;24.40;57.60;;;;;;5025121;28;20270;-68
2023/08/07 05:39:01;;;;;;;32.70;5.93;;;24.40;57.00;;;;;;5025195;28;20196;-68
2023/08/07 05:41:28;;;;;;;25.43;5.17;;;24.40;57.00;;;;;;5025576;28;20320;-68
2023/08/07 05:43:55;;;;;;;26.47;5.53;;;24.40;57.00;;;;;;5024883;28;20228;-69
2023/08/07 05:46:22;;;;;;;37.53;6.63;;;24.40;57.00;;;;;;5024439;28;20204;-68
2023/08/07 05:48:49;;;;;;;25.97;5.67;;;24.40;57.00;;;;;;5024979;28;20211;-68
2023/08/07 05:51:16;;;;;;;25.67;5.60;;;24.40;57.00;;;;;;5024601;28;20740;-70
2023/08/07 05:53:43;;;;;;;32.33;6.47;;;24.40;57.00;;;;;;5024650;28;20315;-70
2023/08/07 05:56:11;;;;;;;21.90;5.03;;;24.40;57.00;;;;;;5025616;28;20208;-70
2023/08/07 05:58:38;;;;;;;37.07;6.10;;;24.40;57.00;;;;;;5009873;28;20704;-70
2023/08/07 06:01:06;;;;;;;31.30;5.83;;;24.40;57.00;;;;;;5009796;28;20201;-70
2023/08/07 06:03:33;;;;;;;49.37;7.47;;;24.40;57.60;;;;;;5029129;28;20305;-70
2023/08/07 06:06:00;;;;;;;22.47;4.80;;;24.40;57.00;;;;;;5019225;28;20198;-73
2023/08/07 06:08:27;;;;;;;25.87;5.43;;;24.40;57.10;;;;;;5023829;28;20572;-72
2023/08/07 06:10:54;;;;;;;34.53;6.03;;;24.40;57.00;;;;;;5023144;28;20739;-71
2023/08/07 06:13:23;;;;;;;22.37;4.93;;;24.40;57.10;;;;;;5022316;28;20232;-71
2023/08/07 06:15:50;;;;;;;29.33;5.67;;;24.40;57.10;;;;;;5004979;28;20198;-71
2023/08/07 06:18:17;;;;;;;29.00;5.40;;;24.40;57.10;;;;;;5022967;28;20213;-74
2023/08/07 06:20:43;;;;;;;47.23;7.27;;;24.40;57.10;;;;;;5022172;28;20875;-70
2023/08/07 06:23:10;;;;;;;24.77;5.27;;;24.40;57.10;;;;;;5024713;28;20213;-71
2023/08/07 06:25:37;;;;;;;46.47;7.43;;;24.40;57.20;;;;;;5026209;28;20244;-71
2023/08/07 06:28:04;;;;;;;36.03;6.20;;;24.40;57.20;;;;;;5022777;28;20280;-74
2023/08/07 06:30:33;;;;;;;28.30;5.73;;;24.40;57.20;;;;;;5025833;28;20229;-69
2023/08/07 06:33:00;;;;;;;35.20;6.13;;;24.40;57.80;;;;;;5027911;28;20211;-77
2023/08/07 06:35:27;;;;;;;29.80;5.77;;;24.40;57.30;;;;;;5022805;28;20223;-75
2023/08/07 06:37:54;;;;;;;29.90;5.67;;;24.40;57.30;;;;;;5026598;28;20246;-76
2023/08/07 06:40:21;;;;;;;19.73;5.20;;;24.40;57.30;;;;;;5025688;28;20197;-75
2023/08/07 06:42:48;;;;;;;28.30;5.90;;;24.50;57.30;;;;;;5024482;28;20296;-76
2023/08/07 06:45:15;;;;;;;25.43;5.03;;;24.50;57.40;;;;;;5026675;28;20323;-70
2023/08/07 06:47:44;;;;;;;30.73;5.70;;;24.50;57.40;;;;;;5026682;28;20290;-72
2023/08/07 06:50:11;;;;;;;24.53;5.17;;;24.50;57.40;;;;;;5021686;28;20193;-71
2023/08/07 06:52:39;;;;;;;33.77;6.07;;;24.50;57.40;;;;;;5018458;27;20355;-69
2023/08/07 06:55:07;;;;;;;45.07;7.03;;;24.50;57.40;;;;;;5024679;28;20201;-67
2023/08/07 06:57:35;;;;;;;26.10;5.23;;;24.60;57.50;;;;;;5036129;28;20612;-74
2023/08/07 07:00:02;;;;;;;25.07;5.47;;;24.60;57.50;;;;;;5019051;28;20622;-73
2023/08/07 07:02:29;;;;;;;21.73;4.67;;;24.60;57.50;;;;;;5017485;28;20287;-73
2023/08/07 07:04:57;;;;;;;23.83;5.17;;;24.60;57.50;;;;;;5028973;27;20233;-73
2023/08/07 07:07:24;;;;;;;52.83;7.77;;;24.60;57.50;;;;;;5019069;28;20208;-75
2023/08/07 07:09:51;;;;;;;35.60;6.33;;;24.70;57.60;;;;;;5024274;28;20733;-74
2023/08/07 07:12:18;;;;;;;23.53;5.07;;;24.70;57.60;;;;;;5040944;28;20292;-74
2023/08/07 07:14:45;;;;;;;26.27;5.60;;;24.70;57.60;;;;;;5029108;28;20317;-73
2023/08/07 07:17:12;;;;;;;30.07;5.77;;;24.70;57.50;;;;;;5027211;28;20292;-75
2023/08/07 07:19:39;;;;;;;19.53;4.67;;;24.70;57.50;;;;;;5027204;28;20244;-70
2023/08/07 07:22:08;;;;;;;31.03;5.53;;;24.80;57.60;;;;;;5025308;28;20207;-65
2023/08/07 07:24:35;;;;;;;25.37;5.03;;;24.80;57.50;;;;;;5025735;28;20323;-66
2023/08/07 07:27:02;;;;;;;30.03;5.83;;;24.80;57.50;;;;;;5027212;28;20254;-66
2023/08/07 07:29:30;;;;;;;25.13;5.13;;;24.80;58.10;;;;;;5025626;28;20592;-66
2023/08/07 07:31:56;;;;;;;25.23;5.27;;;24.80;57.40;;;;;;5026060;28;20200;-67
2023/08/07 07:34:23;;;;;;;41.83;6.70;;;24.80;57.40;;;;;;5023760;28;20267;-75
2023/08/07 07:36:50;;;;;;;32.97;5.77;;;24.80;57.30;;;;;;5022956;28;20289;-71
2023/08/07 07:39:19;;;;;;;22.03;4.90;;;24.80;57.30;;;;;;5021253;28;21015;-72
2023/08/07 07:41:46;;;;;;;20.03;5.27;;;24.90;57.40;;;;;;5026859;28;20236;-71
2023/08/07 07:44:13;;;;;;;30.80;5.43;;;24.90;57.40;;;;;;5025551;28;20227;-73
2023/08/07 07:46:40;;;;;;;20.60;5.13;;;24.90;57.40;;;;;;5025898;28;20200;-72
2023/08/07 07:49:07;;;;;;;30.30;5.33;;;24.80;57.30;;;;;;5024335;28;20295;-73
2023/08/07 07:51:35;;;;;;;20.23;4.90;;;24.90;57.30;;;;;;5010039;28;20320;-71
2023/08/07 07:54:02;;;;;;;26.43;5.53;;;24.90;57.30;;;;;;5006764;28;20284;-69
2023/08/07 07:56:30;;;;;;;28.63;5.60;;;24.90;57.30;;;;;;5064534;27;20193;-73
2023/08/07 07:58:57;;;;;;;23.77;5.13;;;24.90;57.20;;;;;;5025638;28;20236;-71
2023/08/07 08:01:24;;;;;;;17.17;4.87;;;24.90;57.10;;;;;;5025946;28;20475;-67
2023/08/07 08:03:51;;;;;;;19.43;5.00;;;24.90;57.10;;;;;;5023393;28;20231;-71
2023/08/07 08:06:19;;;;;;;37.33;6.53;;;24.90;57.10;;;;;;5026017;28;20239;-66
2023/08/07 08:08:46;;;;;;;34.93;6.17;;;24.90;57.10;;;;;;5019763;28;20613;-66
2023/08/07 08:11:13;;;;;;;63.30;8.97;;;24.90;57.00;;;;;;5017610;28;20220;-66
2023/08/07 08:13:41;;;;;;;30.20;5.53;;;25.00;57.10;;;;;;5028264;27;20299;-74
2023/08/07 08:16:08;;;;;;;31.10;5.93;;;24.90;57.00;;;;;;5034902;28;20701;-75
2023/08/07 08:18:35;;;;;;;31.00;5.87;;;25.00;57.10;;;;;;5034306;28;20219;-75
2023/08/07 08:21:02;;;;;;;23.10;4.97;;;25.00;57.00;;;;;;5045747;28;20287;-75
2023/08/07 08:23:29;;;;;;;49.93;7.60;;;25.00;57.60;;;;;;5036713;28;20244;-75
2023/08/07 08:25:56;;;;;;;28.17;5.83;;;25.00;56.90;;;;;;5027449;28;20289;-74
2023/08/07 08:28:23;;;;;;;25.30;5.23;;;25.00;56.90;;;;;;5025071;27;20224;-72
2023/08/07 08:30:52;;;;;;;41.73;6.97;;;25.00;56.90;;;;;;5024045;27;20243;-76
2023/08/07 08:33:18;;;;;;;32.33;5.80;;;25.00;56.80;;;;;;5005895;28;20225;-73
2023/08/07 08:35:45;;;;;;;23.77;5.07;;;25.00;56.90;;;;;;5005701;28;20214;-73
2023/08/07 08:38:12;;;;;;;17.97;4.80;;;25.00;56.90;;;;;;5006110;28;20197;-73
2023/08/07 08:40:40;;;;;;;20.53;4.70;;;25.00;56.90;;;;;;5016662;28;20637;-72
2023/08/07 08:43:10;;;;;;;23.43;5.17;;;25.00;56.90;;;;;;5025384;28;20205;-73
2023/08/07 08:45:38;;;;;;;20.70;4.93;;;25.00;56.90;;;;;;5025763;28;20253;-74
2023/08/07 08:48:08;;;;;;;24.47;5.30;;;25.00;56.90;;;;;;5025549;28;20276;-74
2023/08/07 08:50:36;;;;;;;21.87;5.13;;;25.00;56.90;;;;;;5017078;28;20293;-73
2023/08/07 08:53:04;;;;;;;20.37;4.83;;;25.00;56.90;;;;;;5005909;28;20201;-73
2023/08/07 08:55:32;;;;;;;32.27;6.00;;;25.10;57.00;;;;;;5053422;27;20632;-75
2023/08/07 08:58:01;;;;;;;17.90;4.47;;;25.10;57.00;;;;;;5059750;27;20292;-73
2023/08/07 09:00:29;;;;;;;27.53;5.73;;;25.10;57.00;;;;;;5024971;28;20204;-72
2023/08/07 09:02:56;;;;;;;27.43;5.57;;;25.10;57.00;;;;;;5025536;28;20200;-74
2023/08/07 09:05:25;;;;;;;21.30;4.77;;;25.10;57.00;;;;;;5025002;28;20688;-74
2023/08/07 09:07:52;;;;;;;27.00;5.70;;;25.10;57.00;;;;;;5025516;28;20881;-76
2023/08/07 09:10:19;;;;;;;25.33;5.40;;;25.20;57.00;;;;;;5025214;28;20933;-74
2023/08/07 09:12:53;;;;;;;21.93;4.67;;;25.20;57.00;;;;;;5025471;28;20300;-77
2023/08/07 09:15:22;;;;;;;22.73;5.00;;;25.20;57.00;;;;;;5025396;28;20206;-76
2023/08/07 09:17:52;;;;;;;41.63;6.77;;;25.20;57.00;;;;;;5025072;28;20235;-79
2023/08/07 09:20:19;;;;;;;22.47;5.17;;;25.30;57.00;;;;;;5108176;27;20321;-78
2023/08/07 09:22:47;;;;;;;31.50;6.33;;;25.30;57.00;;;;;;5064929;27;20284;-72
2023/08/07 09:25:15;;;;;;;23.07;5.13;;;25.30;57.00;;;;;;5024262;28;20264;-74
2023/08/07 09:27:43;;;;;;;22.50;4.83;;;25.30;57.00;;;;;;5025224;28;20645;-78
2023/08/07 09:30:11;;;;;;;27.03;5.60;;;25.40;57.10;;;;;;5025409;28;20663;-74
2023/08/07 09:32:38;;;;;;;20.03;4.90;;;25.30;57.10;;;;;;5024630;28;20289;-74
2023/08/07 09:35:08;;;;;;;24.67;5.13;;;25.40;57.10;;;;;;5025166;28;20595;-79
2023/08/07 09:37:38;;;;;;;17.23;4.53;;;25.40;57.10;;;;;;5025089;28;20613;-75
2023/08/07 09:40:11;;;;;;;28.93;5.50;;;25.40;56.90;;;;;;5024976;28;20254;-76
2023/08/07 09:42:38;;;;;;;24.97;5.37;;;25.50;57.00;;;;;;5024866;28;20260;-73
2023/08/07 09:45:20;;;;;;;22.20;4.83;;;25.50;57.00;;;;;;5024892;28;20240;-78
2023/08/07 09:47:47;;;;;;;31.50;5.73;;;25.50;57.00;;;;;;5024696;28;20237;-72
2023/08/07 09:50:17;;;;;;;28.83;5.63;;;25.50;57.00;;;;;;5024672;28;20292;-73
2023/08/07 09:52:47;;;;;;;32.53;6.00;;;25.50;57.00;;;;;;5027114;28;20204;-75
2023/08/07 09:55:16;;;;;;;30.73;6.37;;;25.60;57.10;;;;;;5024527;28;20205;-73
2023/08/07 09:57:44;;;;;;;25.13;5.27;;;25.60;57.00;;;;;;5027197;28;20196;-76
2023/08/07 10:00:14;;;;;;;23.77;5.37;;;25.60;57.10;;;;;;5024043;28;20284;-72
2023/08/07 10:02:41;;;;;;;29.63;5.60;;;25.60;57.00;;;;;;5044650;28;20202;-73
2023/08/07 10:05:10;;;;;;;26.07;5.70;;;25.60;57.00;;;;;;5048042;28;20239;-73
2023/08/07 10:07:38;;;;;;;22.57;5.07;;;25.60;57.00;;;;;;5048300;28;20200;-73
2023/08/07 10:10:06;;;;;;;23.37;5.07;;;25.70;57.00;;;;;;5047893;28;20299;-74
2023/08/07 10:12:35;;;;;;;20.93;4.87;;;25.70;57.00;;;;;;5048018;28;20204;-73
2023/08/07 10:15:02;;;;;;;24.27;5.33;;;25.70;57.00;;;;;;5048437;28;20262;-73
2023/08/07 10:17:30;;;;;;;17.77;4.80;;;25.80;57.00;;;;;;5047752;28;20204;-73
2023/08/07 10:19:57;;;;;;;29.23;5.53;;;25.80;57.00;;;;;;5048138;28;20846;-73
2023/08/07 10:22:27;;;;;;;27.47;5.37;;;25.80;57.00;;;;;;5041267;28;20204;-77
2023/08/07 10:24:57;;;;;;;25.17;5.30;;;25.80;57.00;;;;;;5045455;28;20638;-75
2023/08/07 10:27:25;;;;;;;26.37;5.33;;;25.80;56.90;;;;;;5047935;27;20199;-74
2023/08/07 10:29:55;;;;;;;27.37;5.43;;;25.90;56.90;;;;;;5048091;28;20207;-73
2023/08/07 10:32:26;;;;;;;29.93;5.70;;;25.90;56.90;;;;;;5045415;28;20201;-74
2023/08/07 10:34:53;;;;;;;24.67;5.47;;;26.00;56.90;;;;;;5023710;27;20851;-76
2023/08/07 10:37:40;;;;;;;25.63;5.17;;;26.00;56.90;;;;;;5019984;28;20288;-76
2023/08/07 10:40:09;;;;;;;27.33;5.53;;;26.00;56.80;;;;;;5017231;28;20213;-77
2023/08/07 10:43:00;;;;;;;29.27;5.67;;;26.10;56.90;;;;;;5027646;28;20212;-75
2023/08/07 10:45:29;;;;;;;26.20;5.30;;;26.10;56.90;;;;;;5027622;28;20241;-79
2023/08/07 10:48:04;;;;;;;22.87;5.03;;;26.20;56.90;;;;;;5027683;28;20289;-75
2023/08/07 10:50:32;;;;;;;26.43;5.43;;;26.20;56.90;;;;;;5038777;27;20231;-78
2023/08/07 10:53:01;;;;;;;30.07;5.40;;;26.30;56.90;;;;;;5025462;28;20235;-76
2023/08/07 10:55:33;;;;;;;26.50;5.60;;;26.30;56.90;;;;;;5027638;28;20266;-76
2023/08/07 10:58:00;;;;;;;67.93;8.87;;;26.40;57.00;;;;;;5020933;28;20211;-75
2023/08/07 11:00:30;;;;;;;38.23;6.47;;;26.50;57.00;;;;;;5030189;27;20201;-78
2023/08/07 11:03:00;;;;;;;25.87;5.30;;;26.50;56.90;;;;;;5029261;27;20342;-71
2023/08/07 11:05:27;;;;;;;64.70;8.80;;;26.60;56.90;;;;;;5018329;28;20236;-70
2023/08/07 11:07:55;;;;;;;26.00;5.30;;;26.70;56.90;;;;;;5016253;28;20303;-75
2023/08/07 11:10:22;;;;;;;25.93;5.47;;;26.70;56.70;;;;;;5026477;28;20308;-73
2023/08/07 11:12:50;;;;;;;23.20;4.97;;;26.80;56.70;;;;;;5037001;28;20291;-73
2023/08/07 11:15:17;;;;;;;37.60;6.20;;;26.80;56.60;;;;;;5039805;28;20196;-78
2023/08/07 11:17:46;;;;;;;21.37;5.03;;;26.90;56.50;;;;;;5030083;28;20288;-74
2023/08/07 11:20:13;;;;;;;25.93;5.43;;;26.90;56.50;;;;;;5024940;28;20252;-74
2023/08/07 11:22:41;;;;;;;18.80;4.87;;;27.00;56.40;;;;;;5023816;28;20208;-71
2023/08/07 11:25:13;;;;;;;29.70;5.77;;;27.00;56.40;;;;;;5035215;28;20227;-72
2023/08/07 11:27:41;;;;;;;25.13;5.10;;;27.00;56.40;;;;;;5034582;28;20296;-71
2023/08/07 11:30:13;;;;;;;21.73;5.27;;;27.00;56.40;;;;;;5038783;28;20201;-67
2023/08/07 11:32:40;;;;;;;26.83;5.60;;;27.10;56.40;;;;;;5034268;28;20197;-70
2023/08/07 11:35:10;;;;;;;42.93;6.83;;;27.10;56.50;;;;;;5025227;27;20205;-73
2023/08/07 11:37:37;;;;;;;21.67;5.10;;;27.10;56.50;;;;;;5026929;27;20292;-75
2023/08/07 11:40:04;;;;;;;26.87;5.77;;;27.10;56.30;;;;;;5026712;28;20209;-72
2023/08/07 11:42:31;;;;;;;31.70;5.90;;;27.10;56.30;;;;;;5027258;28;20251;-78
2023/08/07 11:44:58;;;;;;;33.43;5.97;;;27.10;56.30;;;;;;5026658;28;20288;-76
2023/08/07 11:47:25;;;;;;;22.13;5.00;;;27.10;56.30;;;;;;5027001;28;20236;-72
2023/08/07 11:49:54;;;;;;;21.53;4.60;;;27.20;56.40;;;;;;5043359;27;20296;-72
2023/08/07 11:52:24;;;;;;;24.37;5.50;;;27.10;56.30;;;;;;5046356;28;20208;-71
2023/08/07 11:54:53;;;;;;;25.57;4.97;;;27.20;56.40;;;;;;5037726;28;20212;-80
2023/08/07 11:57:21;;;;;;;34.90;5.80;;;27.20;56.40;;;;;;5046200;28;20288;-72
2023/08/07 11:59:50;;;;;;;24.40;5.00;;;27.20;56.30;;;;;;5046516;28;20660;-72
2023/08/07 12:02:17;;;;;;;30.90;5.70;;;27.20;57.00;;;;;;5046360;28;20195;-71
2023/08/07 12:04:45;;;;;;;25.50;5.20;;;27.20;56.30;;;;;;5046400;28;20200;-71
2023/08/07 12:07:13;;;;;;;24.07;5.33;;;27.20;56.30;;;;;;5046240;28;20639;-75
2023/08/07 12:09:42;;;;;;;28.03;5.27;;;27.20;56.30;;;;;;5020369;28;20205;-74
2023/08/07 12:12:11;;;;;;;29.77;5.73;;;27.20;56.30;;;;;;5025801;28;20219;-73
2023/08/07 12:14:40;;;;;;;24.30;4.97;;;27.20;56.30;;;;;;5026323;28;20199;-79
2023/08/07 12:17:10;;;;;;;21.77;4.70;;;27.20;56.30;;;;;;5026474;28;20208;-73
2023/08/07 12:19:40;;;;;;;19.87;4.53;;;27.20;56.30;;;;;;5027975;28;20208;-74
2023/08/07 12:22:09;;;;;;;20.80;4.53;;;27.20;56.30;;;;;;5046134;28;20232;-78
2023/08/07 12:24:37;;;;;;;22.17;4.83;;;27.20;56.40;;;;;;5045853;28;20247;-72
2023/08/07 12:27:07;;;;;;;27.20;5.33;;;27.30;56.50;;;;;;5045927;28;20223;-72
2023/08/07 12:29:35;;;;;;;45.90;6.80;;;27.20;56.40;;;;;;5044547;28;20801;-75
2023/08/07 12:32:02;;;;;;;18.10;4.43;;;27.30;56.50;;;;;;5046293;28;20200;-72
2023/08/07 12:34:29;;;;;;;29.73;5.57;;;27.30;56.50;;;;;;5040684;28;21200;-71
2023/08/07 12:36:56;;;;;;;27.73;5.53;;;27.30;56.50;;;;;;5036726;28;20569;-78
2023/08/07 12:39:23;;;;;;;21.83;4.90;;;27.30;56.50;;;;;;5025907;28;20189;-73